Time;durP1;ratioP1;P1;durP2;ratioP2;P2;SDS_P1;SDS_P2;PMS_P1;PMS_P2;Temp;Humidity;BMP_temperature;BMP_pressure;BME280_temperature;BME280_humidity;BME280_pressure;Samples;Min_cycle;Max_cycle;Signal;HPM_P1;HPM_P2
2023/08/05 00:01:18;;;;;;;8.60;5.93;;;;;;;18.64;100.00;98086.28;4136532;28;21010;-73
2023/08/05 00:03:22;;;;;;;9.00;6.03;;;;;;;18.60;100.00;98083.13;4151129;28;21093;-74
2023/08/05 00:05:25;;;;;;;8.20;5.53;;;;;;;18.58;100.00;98076.34;4151902;28;21216;-74
2023/08/05 00:07:31;;;;;;;8.40;5.87;;;;;;;18.58;100.00;98081.63;4138189;28;20658;-73
2023/08/05 00:09:36;;;;;;;8.90;5.87;;;;;;;18.54;100.00;98086.38;4153383;28;20714;-73
2023/08/05 00:11:41;;;;;;;10.30;6.20;;;;;;;18.48;100.00;98081.72;4154866;28;20649;-74
2023/08/05 00:13:47;;;;;;;8.87;5.30;;;;;;;18.44;100.00;98079.53;4146387;28;20771;-75
2023/08/05 00:15:50;;;;;;;9.10;5.97;;;;;;;18.45;100.00;98083.84;4151133;28;20629;-73
2023/08/05 00:17:56;;;;;;;9.03;5.67;;;;;;;18.46;100.00;98082.84;4137373;28;20667;-74
2023/08/05 00:19:59;;;;;;;9.67;6.40;;;;;;;18.41;100.00;98078.03;4146762;28;20636;-73
2023/08/05 00:22:04;;;;;;;9.60;5.20;;;;;;;18.38;100.00;98080.16;4138245;28;20705;-73
2023/08/05 00:24:07;;;;;;;7.90;5.60;;;;;;;18.36;100.00;98082.13;4152653;28;21103;-73
2023/08/05 00:26:11;;;;;;;8.53;5.73;;;;;;;18.36;100.00;98083.91;4157972;28;20636;-73
2023/08/05 00:28:16;;;;;;;10.70;6.03;;;;;;;18.34;100.00;98083.25;4136842;28;20634;-73
2023/08/05 00:30:21;;;;;;;8.70;5.70;;;;;;;18.34;100.00;98077.97;4143147;28;20604;-74
2023/08/05 00:32:27;;;;;;;8.43;5.73;;;;;;;18.35;100.00;98077.00;4139238;28;20614;-73
2023/08/05 00:34:33;;;;;;;8.80;6.33;;;;;;;18.35;100.00;98074.34;4120905;28;20659;-73
2023/08/05 00:36:38;;;;;;;8.70;5.60;;;;;;;18.35;100.00;98079.63;4128577;28;21047;-74
2023/08/05 00:38:42;;;;;;;8.60;6.30;;;;;;;18.33;100.00;98076.28;4141785;28;21202;-73
2023/08/05 00:40:46;;;;;;;7.97;5.23;;;;;;;18.31;100.00;98075.63;4134825;28;20676;-74
2023/08/05 00:42:50;;;;;;;9.70;6.10;;;;;;;18.31;100.00;98067.69;4147367;28;20628;-74
2023/08/05 00:44:55;;;;;;;8.07;5.57;;;;;;;18.29;100.00;98062.56;4156479;28;20644;-74
2023/08/05 00:47:00;;;;;;;9.63;6.10;;;;;;;18.30;100.00;98060.78;4124980;28;20631;-73
2023/08/05 00:49:04;;;;;;;8.97;5.80;;;;;;;18.30;100.00;98058.16;4147725;28;20615;-73
2023/08/05 00:51:10;;;;;;;9.40;5.83;;;;;;;18.31;100.00;98054.50;4130982;28;20709;-73
2023/08/05 00:53:23;;;;;;;8.80;6.50;;;;;;;18.29;100.00;98062.56;4160304;28;20748;-80
2023/08/05 00:55:29;;;;;;;8.10;5.87;;;;;;;18.30;100.00;98056.31;4143239;28;20689;-81
2023/08/05 00:57:42;;;;;;;8.20;5.53;;;;;;;18.29;100.00;98062.56;4154375;28;20668;-82
2023/08/05 00:59:47;;;;;;;8.10;6.00;;;;;;;18.30;100.00;98072.16;4130908;28;20729;-82
2023/08/05 01:01:51;;;;;;;8.93;5.70;;;;;;;18.29;100.00;98070.50;4138875;28;20666;-83
2023/08/05 01:03:55;;;;;;;8.00;6.07;;;;;;;18.31;100.00;98060.63;4139024;28;20657;-82
2023/08/05 01:06:00;;;;;;;8.40;5.30;;;;;;;18.32;100.00;98058.81;4143410;28;20736;-82
2023/08/05 01:08:05;;;;;;;11.20;6.07;;;;;;;18.32;100.00;98061.44;4143311;28;21058;-83
2023/08/05 01:10:10;;;;;;;7.80;5.20;;;;;;;18.31;100.00;98057.13;4126254;28;20668;-82
2023/08/05 01:12:14;;;;;;;7.70;5.13;;;;;;;18.31;100.00;98067.69;4139085;28;20714;-81
2023/08/05 01:14:17;;;;;;;8.30;5.70;;;;;;;18.32;100.00;98066.72;4134382;28;20631;-82
2023/08/05 01:16:21;;;;;;;8.70;5.50;;;;;;;18.30;100.00;98068.72;4143763;28;20633;-81
2023/08/05 01:18:25;;;;;;;7.70;5.50;;;;;;;18.27;100.00;98077.75;4142623;28;20664;-79
2023/08/05 01:20:34;;;;;;;8.97;6.00;;;;;;;18.24;100.00;98077.25;4163244;28;20623;-82
2023/08/05 01:22:41;;;;;;;7.43;5.20;;;;;;;18.24;100.00;98075.41;4158433;28;20995;-82
2023/08/05 01:24:50;;;;;;;9.70;5.93;;;;;;;18.23;100.00;98075.56;4141887;28;21279;-82
2023/08/05 01:26:57;;;;;;;7.33;5.20;;;;;;;18.21;100.00;98075.72;4159059;28;21008;-82
2023/08/05 01:29:01;;;;;;;7.33;5.60;;;;;;;18.20;100.00;98081.16;4149028;28;20723;-83
2023/08/05 01:31:07;;;;;;;8.70;5.63;;;;;;;18.17;100.00;98081.44;4144046;28;20632;-81
2023/08/05 01:33:13;;;;;;;8.80;5.43;;;;;;;18.14;100.00;98079.13;4156693;28;21042;-82
2023/08/05 01:35:21;;;;;;;9.27;5.23;;;;;;;18.14;100.00;98085.22;4143713;28;21306;-79
2023/08/05 01:37:25;;;;;;;9.80;5.57;;;;;;;18.13;100.00;98090.66;4159844;28;20638;-80
2023/08/05 01:39:30;;;;;;;7.37;5.20;;;;;;;18.13;100.00;98088.84;4145128;28;20615;-82
2023/08/05 01:41:35;;;;;;;6.27;4.70;;;;;;;18.12;100.00;98091.63;4128814;28;20638;-81
2023/08/05 01:43:41;;;;;;;7.90;5.00;;;;;;;18.10;100.00;98088.28;4155937;28;20631;-82
2023/08/05 01:45:48;;;;;;;6.90;5.23;;;;;;;18.08;100.00;98083.16;4157172;28;20659;-81
2023/08/05 01:47:53;;;;;;;9.43;5.80;;;;;;;18.08;100.00;98077.03;4144520;28;20691;-80
2023/08/05 01:49:59;;;;;;;12.17;5.90;;;;;;;18.08;100.00;98084.97;4145414;28;20644;-83
2023/08/05 01:52:04;;;;;;;7.37;5.30;;;;;;;18.06;100.00;98077.19;4127670;28;21220;-83
2023/08/05 01:54:20;;;;;;;7.17;5.67;;;;;;;18.04;100.00;98070.41;4142905;28;20638;-82
2023/08/05 01:56:24;;;;;;;7.30;5.10;;;;;;;18.01;100.00;98070.69;4158042;28;20691;-80
2023/08/05 01:58:28;;;;;;;8.13;5.27;;;;;;;17.97;100.00;98070.19;4130434;28;20638;-81
2023/08/05 02:00:33;;;;;;;7.43;5.57;;;;;;;17.96;100.00;98070.31;4142465;28;20617;-82
2023/08/05 02:02:37;;;;;;;8.07;5.97;;;;;;;17.99;100.00;98072.66;4160638;28;20624;-82
2023/08/05 02:04:42;;;;;;;8.07;5.30;;;;;;;17.98;100.00;98078.91;4158153;28;21236;-74
2023/08/05 02:06:46;;;;;;;7.00;5.03;;;;;;;17.95;100.00;98072.16;4141174;28;20744;-73
2023/08/05 02:08:49;;;;;;;7.87;4.90;;;;;;;17.96;100.00;98062.41;4147754;28;20636;-75
2023/08/05 02:10:54;;;;;;;7.80;5.00;;;;;;;17.96;100.00;98059.75;4129685;28;21103;-73
2023/08/05 02:12:57;;;;;;;7.70;5.20;;;;;;;17.97;100.00;98059.63;4139745;28;20673;-73
2023/08/05 02:15:04;;;;;;;8.13;5.40;;;;;;;17.96;100.00;98051.84;4136832;28;20664;-74
2023/08/05 02:17:08;;;;;;;9.80;5.77;;;;;;;17.95;100.00;98042.25;4155852;28;20625;-73
2023/08/05 02:19:13;;;;;;;7.00;5.00;;;;;;;17.95;100.00;98035.19;4136646;28;20642;-73
2023/08/05 02:21:18;;;;;;;7.53;5.27;;;;;;;17.97;100.00;98042.97;4144660;28;20628;-73
2023/08/05 02:23:23;;;;;;;7.10;5.13;;;;;;;17.96;100.00;98026.28;4132335;28;20663;-74
2023/08/05 02:25:27;;;;;;;7.73;5.23;;;;;;;17.96;100.00;98009.63;4139451;28;21048;-74
2023/08/05 02:27:33;;;;;;;8.03;5.37;;;;;;;17.94;100.00;98011.59;4141967;28;20636;-74
2023/08/05 02:29:39;;;;;;;11.40;5.43;;;;;;;17.94;100.00;98022.97;4135421;28;20737;-73
2023/08/05 02:31:43;;;;;;;7.17;5.20;;;;;;;17.93;100.00;98016.00;4135681;28;20725;-74
2023/08/05 02:33:49;;;;;;;9.30;5.60;;;;;;;17.93;100.00;98007.28;4129514;28;20689;-73
2023/08/05 02:35:57;;;;;;;8.70;5.90;;;;;;;17.92;100.00;98005.66;4132879;28;20668;-73
2023/08/05 02:38:01;;;;;;;7.60;5.63;;;;;;;17.91;100.00;98003.97;4120464;28;20638;-73
2023/08/05 02:40:09;;;;;;;5.90;4.07;;;;;;;17.90;100.00;97998.84;4124613;28;20642;-73
2023/08/05 02:42:14;;;;;;;7.77;5.00;;;;;;;17.89;100.00;97999.81;4152616;28;20760;-74
2023/08/05 02:44:37;;;;;;;6.97;4.40;;;;;;;17.88;100.00;97990.25;4145584;28;21211;-75
2023/08/05 02:46:41;;;;;;;7.53;5.17;;;;;;;17.87;100.00;97983.31;4159138;28;20628;-74
2023/08/05 02:48:49;;;;;;;8.77;5.27;;;;;;;17.85;100.00;97985.28;4127088;28;21211;-74
2023/08/05 02:50:54;;;;;;;5.10;4.40;;;;;;;17.84;100.00;97984.44;4141259;28;21081;-73
2023/08/05 02:53:17;;;;;;;10.73;5.30;;;;;;;17.82;100.00;97991.69;4153736;28;20615;-74
2023/08/05 02:55:20;;;;;;;8.00;4.63;;;;;;;17.81;100.00;97999.75;4128761;28;20678;-74
2023/08/05 02:57:28;;;;;;;7.70;4.80;;;;;;;17.79;100.00;97994.63;4144372;28;21076;-75
2023/08/05 02:59:31;;;;;;;8.00;5.03;;;;;;;17.79;100.00;97999.09;4145251;28;20677;-73
2023/08/05 03:01:37;;;;;;;7.17;4.77;;;;;;;17.77;100.00;98006.31;4139178;28;20636;-74
2023/08/05 03:03:41;;;;;;;8.23;5.43;;;;;;;17.75;100.00;98011.72;4155737;28;21022;-73
2023/08/05 03:05:54;;;;;;;8.33;4.67;;;;;;;17.74;100.00;98014.50;4130693;28;20633;-75
2023/08/05 03:07:59;;;;;;;7.77;5.47;;;;;;;17.73;100.00;98011.06;4137992;28;20640;-73
2023/08/05 03:10:13;;;;;;;6.23;4.83;;;;;;;17.73;100.00;98012.88;4139635;28;20676;-73
2023/08/05 03:12:18;;;;;;;7.00;4.53;;;;;;;17.72;100.00;98027.84;4145307;28;20730;-74
2023/08/05 03:14:26;;;;;;;8.47;4.57;;;;;;;17.71;100.00;98036.78;4141600;28;20655;-73
2023/08/05 03:16:30;;;;;;;6.80;4.57;;;;;;;17.71;100.00;98031.50;4136430;28;20665;-75
2023/08/05 03:18:41;;;;;;;9.27;4.60;;;;;;;17.70;100.00;98035.09;4135969;28;21077;-74
2023/08/05 03:20:46;;;;;;;6.97;4.93;;;;;;;17.68;100.00;98044.13;4141542;28;20644;-74
2023/08/05 03:22:54;;;;;;;6.30;4.63;;;;;;;17.62;100.00;98053.50;4138651;28;21031;-73
2023/08/05 03:25:00;;;;;;;7.27;4.97;;;;;;;17.61;100.00;98057.09;4152746;28;21264;-82
2023/08/05 03:27:07;;;;;;;7.10;4.70;;;;;;;17.60;100.00;98065.97;4123489;28;20725;-82
2023/08/05 03:29:13;;;;;;;7.30;5.00;;;;;;;17.61;100.00;98065.00;4137992;28;20648;-80
2023/08/05 03:31:18;;;;;;;6.40;5.00;;;;;;;17.63;100.00;98070.16;4142091;28;20629;-81
2023/08/05 03:33:30;;;;;;;6.27;5.07;;;;;;;17.64;100.00;98064.72;4135030;28;20700;-81
2023/08/05 03:35:44;;;;;;;6.40;4.93;;;;;;;17.66;100.00;98070.66;4140153;28;20687;-82
2023/08/05 03:37:54;;;;;;;6.83;4.80;;;;;;;17.65;100.00;98070.81;4139111;28;20622;-81
2023/08/05 03:39:57;;;;;;;9.40;4.90;;;;;;;17.64;100.00;98072.63;4129509;28;20693;-81
2023/08/05 03:42:02;;;;;;;10.90;5.20;;;;;;;17.61;100.00;98069.47;4157399;28;20621;-82
2023/08/05 03:44:06;;;;;;;8.60;5.57;;;;;;;17.63;100.00;98070.97;4136485;28;20674;-83
2023/08/05 03:46:11;;;;;;;8.10;5.30;;;;;;;17.66;100.00;98080.41;4140398;28;20619;-82
2023/08/05 03:48:15;;;;;;;7.00;4.90;;;;;;;17.64;100.00;98087.66;4150129;28;20977;-82
2023/08/05 03:50:20;;;;;;;6.30;4.70;;;;;;;17.62;100.00;98089.59;4154509;28;20723;-80
2023/08/05 03:52:33;;;;;;;8.50;5.10;;;;;;;17.60;100.00;98091.53;4145140;28;20735;-83
2023/08/05 03:54:37;;;;;;;10.60;6.00;;;;;;;17.62;100.00;98094.84;4119234;28;20645;-82
2023/08/05 03:56:42;;;;;;;7.50;5.00;;;;;;;17.64;100.00;98091.09;4127368;28;20656;-82
2023/08/05 03:58:51;;;;;;;7.57;5.30;;;;;;;17.65;100.00;98089.28;4137243;28;20672;-82
2023/08/05 04:00:59;;;;;;;8.27;5.70;;;;;;;17.67;100.00;98093.44;4135045;28;20636;-82
2023/08/05 04:03:18;;;;;;;8.60;5.40;;;;;;;17.67;100.00;98093.44;4137495;28;20664;-82
2023/08/05 04:05:22;;;;;;;9.50;6.00;;;;;;;17.68;100.00;98091.63;4121056;28;20983;-80
2023/08/05 04:07:28;;;;;;;7.63;6.00;;;;;;;17.68;100.00;98087.19;4140554;28;20988;-80
2023/08/05 04:09:35;;;;;;;11.30;5.70;;;;;;;17.67;100.00;98093.44;4154978;28;20621;-82
2023/08/05 04:11:40;;;;;;;9.03;6.00;;;;;;;17.67;100.00;98097.91;4152373;28;20752;-82
2023/08/05 04:14:03;;;;;;;12.07;6.17;;;;;;;17.66;100.00;98088.31;4147406;28;21162;-83
2023/08/05 04:16:17;;;;;;;9.13;5.40;;;;;;;17.65;100.00;98082.22;4152442;28;20691;-82
2023/08/05 04:18:42;;;;;;;7.70;5.50;;;;;;;17.64;100.00;98083.19;4144051;28;21239;-80
2023/08/05 04:21:05;;;;;;;9.87;6.27;;;;;;;17.64;100.00;98080.56;4134341;28;20633;-83
2023/08/05 04:23:31;;;;;;;7.70;6.00;;;;;;;17.63;100.00;98086.78;4136440;28;20621;-82
2023/08/05 04:25:54;;;;;;;8.03;5.60;;;;;;;17.64;100.00;98082.38;4138039;28;20745;-82
2023/08/05 04:28:18;;;;;;;7.73;5.63;;;;;;;17.62;100.00;98073.75;4148674;28;20648;-81
2023/08/05 04:30:41;;;;;;;12.40;6.37;;;;;;;17.61;100.00;98070.28;4139560;28;20647;-82
2023/08/05 04:33:04;;;;;;;8.73;5.97;;;;;;;17.59;100.00;98074.91;4149247;28;20647;-83
2023/08/05 04:35:28;;;;;;;8.97;6.40;;;;;;;17.59;100.00;98085.44;4145790;28;20624;-82
2023/08/05 04:37:51;;;;;;;8.80;6.10;;;;;;;17.59;100.00;98090.72;4139293;28;20655;-82
2023/08/05 04:40:14;;;;;;;9.90;6.67;;;;;;;17.61;100.00;98099.31;4153082;28;20666;-82
2023/08/05 04:42:18;;;;;;;9.70;6.63;;;;;;;17.61;100.00;98093.22;4133714;28;20629;-80
2023/08/05 04:44:23;;;;;;;7.37;5.87;;;;;;;17.61;100.00;98094.03;4149797;28;20730;-82
2023/08/05 04:46:27;;;;;;;8.60;6.17;;;;;;;17.61;100.00;98098.50;4153224;28;20662;-81
2023/08/05 04:48:30;;;;;;;10.70;7.53;;;;;;;17.61;100.00;98107.22;4143908;28;20623;-82
2023/08/05 04:50:36;;;;;;;9.40;6.60;;;;;;;17.62;100.00;98106.25;4153424;28;20645;-82
2023/08/05 04:52:40;;;;;;;8.83;6.00;;;;;;;17.62;100.00;98119.44;4134151;28;20624;-80
2023/08/05 04:54:45;;;;;;;9.37;5.73;;;;;;;17.63;100.00;98118.44;4154341;28;20626;-81
2023/08/05 04:56:52;;;;;;;10.33;6.73;;;;;;;17.63;100.00;98112.34;4155427;28;20743;-81
2023/08/05 04:58:57;;;;;;;10.40;6.37;;;;;;;17.63;100.00;98113.19;4156175;28;20734;-82
2023/08/05 05:01:02;;;;;;;10.73;6.40;;;;;;;17.65;100.00;98115.66;4132232;28;20641;-82
2023/08/05 05:03:07;;;;;;;9.67;5.70;;;;;;;17.64;100.00;98120.13;4165489;28;20665;-81
2023/08/05 05:05:12;;;;;;;8.03;5.87;;;;;;;17.64;100.00;98120.13;4157743;28;20650;-81
2023/08/05 05:07:16;;;;;;;9.60;6.03;;;;;;;17.62;100.00;98121.25;4158824;28;20720;-80
2023/08/05 05:09:22;;;;;;;9.07;6.63;;;;;;;17.61;100.00;98115.13;4139757;28;20679;-81
2023/08/05 05:11:25;;;;;;;13.20;6.93;;;;;;;17.58;100.00;98104.88;4155939;28;20681;-81
2023/08/05 05:13:30;;;;;;;8.97;6.60;;;;;;;17.60;100.00;98110.00;4140376;28;20752;-80
2023/08/05 05:15:37;;;;;;;9.47;6.50;;;;;;;17.62;100.00;98108.03;4154563;28;20748;-82
2023/08/05 05:17:42;;;;;;;9.47;6.57;;;;;;;17.62;100.00;98108.91;4145426;28;21178;-81
2023/08/05 05:19:47;;;;;;;9.53;6.73;;;;;;;17.61;100.00;98107.22;4161583;28;20653;-82
2023/08/05 05:21:51;;;;;;;8.97;6.73;;;;;;;17.63;100.00;98101.81;4146809;28;21324;-82
2023/08/05 05:24:05;;;;;;;10.43;6.43;;;;;;;17.65;100.00;98105.13;4153794;28;20646;-80
2023/08/05 05:26:09;;;;;;;8.80;6.27;;;;;;;17.65;100.00;98102.47;4155932;28;21159;-82
2023/08/05 05:28:17;;;;;;;9.17;7.27;;;;;;;17.66;100.00;98096.22;4156714;28;20773;-82
2023/08/05 05:30:22;;;;;;;8.83;6.00;;;;;;;17.67;100.00;98100.53;4146239;28;21129;-82
2023/08/05 05:32:28;;;;;;;12.50;6.57;;;;;;;17.69;100.00;98102.03;4157576;28;20641;-81
2023/08/05 05:34:33;;;;;;;10.13;6.83;;;;;;;17.69;100.00;98104.66;4146874;28;20665;-82
2023/08/05 05:36:36;;;;;;;11.00;5.90;;;;;;;17.70;100.00;98108.97;4156161;28;20753;-82
2023/08/05 05:38:40;;;;;;;12.17;7.60;;;;;;;17.70;100.00;98114.25;4155061;28;21066;-80
2023/08/05 05:40:44;;;;;;;9.77;6.33;;;;;;;17.72;100.00;98120.22;4154484;28;20630;-82
2023/08/05 05:42:49;;;;;;;10.53;6.70;;;;;;;17.72;100.00;98112.28;4143048;28;20646;-80
2023/08/05 05:44:53;;;;;;;8.13;5.97;;;;;;;17.72;100.00;98117.56;4140779;28;20636;-80
2023/08/05 05:46:57;;;;;;;11.33;7.77;;;;;;;17.73;100.00;98111.31;4142210;28;20672;-82
2023/08/05 05:49:03;;;;;;;9.03;6.13;;;;;;;17.75;100.00;98105.91;4139960;28;20643;-82
2023/08/05 05:51:09;;;;;;;9.10;6.63;;;;;;;17.75;100.00;98101.44;4158285;28;20628;-80
2023/08/05 05:53:14;;;;;;;10.57;7.10;;;;;;;17.76;100.00;98103.13;4140841;28;20600;-82
2023/08/05 05:55:17;;;;;;;10.40;7.10;;;;;;;17.76;100.00;98099.66;4156601;28;20640;-82
2023/08/05 05:57:22;;;;;;;9.43;6.47;;;;;;;17.79;100.00;98099.34;4144074;28;20656;-82
2023/08/05 05:59:27;;;;;;;11.40;6.27;;;;;;;17.79;100.00;98092.25;4138277;28;20639;-81
2023/08/05 06:01:30;;;;;;;8.87;6.20;;;;;;;17.82;100.00;98088.50;4129362;28;21093;-80
2023/08/05 06:03:42;;;;;;;6.87;5.60;;;;;;;17.84;100.00;98084.72;4158556;28;20692;-82
2023/08/05 06:05:46;;;;;;;9.77;5.90;;;;;;;17.85;100.00;98075.84;4126984;28;20712;-80
2023/08/05 06:07:53;;;;;;;9.77;6.50;;;;;;;17.89;100.00;98086.91;4156473;28;20707;-82
2023/08/05 06:10:01;;;;;;;9.27;6.40;;;;;;;17.91;100.00;98088.44;4141554;28;20628;-80
2023/08/05 06:12:10;;;;;;;7.47;5.50;;;;;;;17.90;100.00;98086.75;4137926;28;20690;-82
2023/08/05 06:14:13;;;;;;;9.60;6.73;;;;;;;17.91;100.00;98083.16;4155294;28;20672;-81
2023/08/05 06:16:18;;;;;;;8.30;6.37;;;;;;;17.93;100.00;98078.53;4123989;28;20784;-82
2023/08/05 06:18:23;;;;;;;8.30;6.50;;;;;;;17.98;100.00;98082.41;4146277;28;21043;-82
2023/08/05 06:20:31;;;;;;;9.67;7.00;;;;;;;18.03;100.00;98087.22;4151924;28;20673;-81
2023/08/05 06:22:34;;;;;;;10.80;7.03;;;;;;;18.07;100.00;98080.66;4153724;28;21093;-82
2023/08/05 06:24:45;;;;;;;11.07;7.47;;;;;;;18.10;100.00;98083.00;4146464;28;20688;-81
2023/08/05 06:26:56;;;;;;;9.37;7.47;;;;;;;18.16;100.00;98082.41;4137931;28;20679;-83
2023/08/05 06:29:01;;;;;;;9.93;7.17;;;;;;;18.20;100.00;98091.72;4137205;28;20653;-81
2023/08/05 06:31:16;;;;;;;9.07;7.27;;;;;;;18.25;100.00;98092.94;4140052;28;21276;-82
2023/08/05 06:33:19;;;;;;;9.30;7.53;;;;;;;18.28;100.00;98092.63;4153226;28;20704;-82
2023/08/05 06:35:23;;;;;;;8.70;6.70;;;;;;;18.30;100.00;98084.56;4121171;28;20643;-78
2023/08/05 06:37:27;;;;;;;9.03;6.73;;;;;;;18.34;100.00;98088.53;4121823;28;20635;-81
2023/08/05 06:39:32;;;;;;;9.50;6.30;;;;;;;18.36;99.99;98097.13;4151886;28;21175;-80
2023/08/05 06:41:39;;;;;;;8.37;6.80;;;;;;;18.37;99.95;98093.50;4153972;28;20646;-82
2023/08/05 06:43:42;;;;;;;9.57;7.10;;;;;;;18.38;100.00;98097.81;4122017;28;20647;-82
2023/08/05 06:45:46;;;;;;;8.77;6.47;;;;;;;18.40;99.71;98088.75;4153516;28;20639;-81
2023/08/05 06:47:50;;;;;;;9.80;7.33;;;;;;;18.43;99.54;98084.00;4141066;28;20646;-81
2023/08/05 06:49:54;;;;;;;8.00;6.07;;;;;;;18.49;99.56;98085.19;4153443;28;20625;-81
2023/08/05 06:51:58;;;;;;;9.23;7.00;;;;;;;18.54;99.96;98085.56;4151423;28;20636;-81
2023/08/05 06:54:04;;;;;;;9.03;7.13;;;;;;;18.54;98.67;98088.22;4157439;28;21194;-74
2023/08/05 06:56:11;;;;;;;8.67;7.30;;;;;;;18.52;98.88;98091.00;4139111;28;20644;-73
2023/08/05 06:58:17;;;;;;;8.70;6.93;;;;;;;18.51;98.61;98086.69;4152422;28;21227;-72
2023/08/05 07:00:21;;;;;;;7.80;6.80;;;;;;;18.52;97.68;98079.59;4151791;28;20639;-74
2023/08/05 07:02:25;;;;;;;8.20;7.33;;;;;;;18.57;98.54;98079.97;4140435;28;20984;-73
2023/08/05 07:04:30;;;;;;;11.13;7.20;;;;;;;18.62;97.66;98078.50;4137798;28;20708;-76
2023/08/05 07:06:37;;;;;;;9.23;7.37;;;;;;;18.66;96.74;98079.88;4153309;28;20678;-76
2023/08/05 07:08:43;;;;;;;8.80;6.90;;;;;;;18.69;97.62;98074.28;4144489;28;20643;-75
2023/08/05 07:10:55;;;;;;;9.43;7.40;;;;;;;18.74;98.57;98071.19;4129857;28;20641;-75
2023/08/05 07:13:01;;;;;;;9.53;7.40;;;;;;;18.77;98.22;98065.59;4162064;28;20627;-73
2023/08/05 07:15:10;;;;;;;9.80;7.37;;;;;;;18.80;96.88;98059.97;4151334;28;20646;-72
2023/08/05 07:17:16;;;;;;;9.20;7.07;;;;;;;18.83;98.06;98065.78;4151005;28;20634;-73
2023/08/05 07:19:24;;;;;;;10.10;6.77;;;;;;;18.82;97.82;98066.75;4137378;28;20652;-72
2023/08/05 07:21:30;;;;;;;8.90;7.13;;;;;;;18.84;97.07;98067.44;4155019;28;20671;-73
2023/08/05 07:23:36;;;;;;;8.93;7.30;;;;;;;18.87;97.54;98061.84;4129881;28;20782;-73
2023/08/05 07:25:39;;;;;;;8.40;6.97;;;;;;;18.91;96.57;98066.66;4157293;28;20620;-75
2023/08/05 07:27:54;;;;;;;9.27;7.53;;;;;;;18.96;97.78;98061.72;4140410;28;20632;-73
2023/08/05 07:29:57;;;;;;;8.70;6.90;;;;;;;19.01;96.49;98069.19;4150473;28;20641;-74
2023/08/05 07:32:03;;;;;;;7.90;6.87;;;;;;;19.07;97.24;98071.25;4138320;28;20729;-74
2023/08/05 07:34:09;;;;;;;9.33;6.40;;;;;;;19.11;96.62;98069.91;4144927;28;20641;-73
2023/08/05 07:36:15;;;;;;;7.30;6.37;;;;;;;19.16;95.32;98057.91;4155826;28;20640;-73
2023/08/05 07:38:23;;;;;;;7.50;6.50;;;;;;;19.21;95.30;98062.72;4143181;28;20690;-74
2023/08/05 07:40:27;;;;;;;8.33;6.60;;;;;;;19.25;93.77;98064.88;4155287;28;20650;-73
2023/08/05 07:42:30;;;;;;;7.80;6.80;;;;;;;19.33;94.84;98067.56;4154839;28;20644;-73
2023/08/05 07:44:36;;;;;;;10.97;6.90;;;;;;;19.39;94.17;98070.41;4133426;28;20630;-73
2023/08/05 07:46:41;;;;;;;8.37;6.27;;;;;;;19.47;94.13;98073.06;4157363;28;20682;-73
2023/08/05 07:48:50;;;;;;;6.87;5.90;;;;;;;19.58;94.79;98074.59;4140863;28;20661;-73
2023/08/05 07:50:54;;;;;;;8.97;6.93;;;;;;;19.70;94.10;98068.84;4154998;28;20692;-73
2023/08/05 07:52:58;;;;;;;6.70;6.00;;;;;;;19.74;93.69;98064.91;4142016;28;20707;-72
2023/08/05 07:55:07;;;;;;;7.70;6.20;;;;;;;19.76;94.68;98070.84;4143913;28;21195;-73
2023/08/05 07:57:11;;;;;;;7.20;6.03;;;;;;;19.81;92.97;98062.44;4144554;28;21048;-73
2023/08/05 07:59:17;;;;;;;6.53;5.47;;;;;;;19.86;92.73;98075.06;4151859;28;20662;-73
2023/08/05 08:01:24;;;;;;;6.33;5.50;;;;;;;19.89;93.75;98068.59;4153819;28;20640;-73
2023/08/05 08:03:33;;;;;;;6.23;4.80;;;;;;;19.84;92.80;98065.56;4138791;28;20669;-73
2023/08/05 08:05:39;;;;;;;5.80;5.20;;;;;;;19.84;93.50;98060.28;4137351;28;20737;-79
2023/08/05 08:07:46;;;;;;;6.30;5.03;;;;;;;19.88;92.67;98066.94;4136232;28;20641;-81
2023/08/05 08:09:52;;;;;;;8.00;4.87;;;;;;;19.87;91.17;98074.06;4155596;28;21104;-81
2023/08/05 08:11:59;;;;;;;6.20;5.60;;;;;;;19.80;91.65;98066.06;4143394;28;20637;-82
2023/08/05 08:14:04;;;;;;;7.17;6.17;;;;;;;19.75;91.83;98066.53;4133595;28;20660;-82
2023/08/05 08:16:13;;;;;;;6.60;5.20;;;;;;;19.78;93.78;98070.69;4136799;28;21250;-80
2023/08/05 08:18:18;;;;;;;6.10;5.50;;;;;;;19.80;93.07;98077.50;4139681;28;20676;-81
2023/08/05 08:20:34;;;;;;;8.47;5.23;;;;;;;19.83;91.86;98071.03;4125024;28;21209;-83
2023/08/05 08:22:58;;;;;;;7.23;5.53;;;;;;;19.81;91.02;98065.88;4154535;28;20628;-82
2023/08/05 08:25:03;;;;;;;6.70;5.87;;;;;;;19.84;91.60;98054.97;4152258;28;20673;-80
2023/08/05 08:27:24;;;;;;;6.67;4.90;;;;;;;19.95;92.17;98057.34;4145712;28;20700;-79
2023/08/05 08:29:28;;;;;;;6.73;5.60;;;;;;;20.07;91.46;98050.75;4133445;28;20626;-82
2023/08/05 08:31:33;;;;;;;5.73;4.93;;;;;;;20.17;90.77;98051.41;4155608;28;20645;-82
2023/08/05 08:33:38;;;;;;;4.90;4.40;;;;;;;20.16;90.21;98049.75;4150475;28;20614;-82
2023/08/05 08:35:42;;;;;;;6.80;5.53;;;;;;;20.23;89.29;98045.47;4155359;28;21235;-81
2023/08/05 08:37:47;;;;;;;10.60;5.30;;;;;;;20.41;89.97;98054.91;4124364;28;20624;-82
2023/08/05 08:39:52;;;;;;;7.53;5.10;;;;;;;20.58;90.07;98057.38;4131981;28;21073;-81
2023/08/05 08:41:56;;;;;;;5.50;4.80;;;;;;;20.60;89.59;98050.09;4136796;28;20644;-82
2023/08/05 08:44:04;;;;;;;6.73;5.10;;;;;;;20.67;88.63;98053.72;4151733;28;20633;-82
2023/08/05 08:46:09;;;;;;;6.47;5.20;;;;;;;20.76;88.19;98042.13;4152379;28;20653;-82
2023/08/05 08:48:14;;;;;;;5.20;4.50;;;;;;;20.93;88.02;98049.06;4134833;28;20679;-82
2023/08/05 08:50:18;;;;;;;6.23;4.33;;;;;;;21.05;86.99;98050.34;4138283;28;20635;-81
2023/08/05 08:52:23;;;;;;;6.80;5.43;;;;;;;21.15;88.77;98051.81;4153124;28;20621;-83
2023/08/05 08:54:30;;;;;;;5.23;4.50;;;;;;;21.28;88.23;98044.97;4143539;28;20642;-82
2023/08/05 08:56:38;;;;;;;6.10;5.20;;;;;;;21.57;85.37;98047.03;4137373;28;20678;-83
2023/08/05 08:58:42;;;;;;;8.13;5.30;;;;;;;21.73;86.47;98037.16;4135336;28;20743;-82
2023/08/05 09:00:48;;;;;;;7.13;4.27;;;;;;;21.65;86.41;98039.84;4152501;28;20685;-82
2023/08/05 09:02:54;;;;;;;6.20;4.60;;;;;;;21.63;87.53;98043.69;4153478;28;20623;-82
2023/08/05 09:05:03;;;;;;;6.83;5.00;;;;;;;21.61;86.97;98049.16;4156288;28;20703;-82
2023/08/05 09:07:13;;;;;;;7.50;4.43;;;;;;;21.62;86.12;98042.88;4152308;28;20636;-83
2023/08/05 09:09:18;;;;;;;4.87;4.10;;;;;;;21.63;84.81;98033.88;4151500;28;20668;-80
2023/08/05 09:11:29;;;;;;;5.57;4.70;;;;;;;21.64;84.93;98032.88;4156517;28;20733;-82
2023/08/05 09:13:40;;;;;;;5.50;4.80;;;;;;;21.71;85.81;98033.00;4148066;28;20650;-82
2023/08/05 09:15:47;;;;;;;6.03;4.40;;;;;;;21.94;86.73;98032.84;4153863;28;20659;-81
2023/08/05 09:17:50;;;;;;;5.27;4.40;;;;;;;22.25;84.41;98029.19;4131722;28;20683;-82
2023/08/05 09:20:11;;;;;;;4.73;4.30;;;;;;;22.36;84.92;98036.72;4138450;28;21346;-82
2023/08/05 09:22:14;;;;;;;6.67;4.20;;;;;;;22.37;84.14;98038.38;4153120;28;20740;-80
2023/08/05 09:24:23;;;;;;;5.37;4.27;;;;;;;22.57;84.41;98031.56;4147335;28;20647;-82
2023/08/05 09:26:27;;;;;;;4.63;4.20;;;;;;;22.65;83.81;98026.16;4140216;28;21416;-80
2023/08/05 09:28:41;;;;;;;5.47;3.90;;;;;;;22.69;81.39;98030.13;4157231;28;20641;-82
2023/08/05 09:30:49;;;;;;;4.50;4.10;;;;;;;22.63;79.50;98022.00;4157945;28;20963;-82
2023/08/05 09:33:00;;;;;;;5.80;3.93;;;;;;;22.70;82.77;98021.09;4153270;28;20634;-83
2023/08/05 09:35:10;;;;;;;5.17;4.67;;;;;;;22.86;82.86;98024.44;4160006;28;20706;-83
2023/08/05 09:37:13;;;;;;;5.07;4.00;;;;;;;22.84;80.48;98021.13;4158288;28;20654;-81
2023/08/05 09:39:17;;;;;;;4.37;3.60;;;;;;;22.88;81.03;98018.94;4139278;28;20662;-82
2023/08/05 09:41:28;;;;;;;4.10;3.53;;;;;;;23.05;82.49;98017.78;4156438;28;20884;-81
2023/08/05 09:43:35;;;;;;;4.90;3.77;;;;;;;23.20;80.84;98006.94;4141220;28;20659;-82
2023/08/05 09:45:44;;;;;;;5.13;4.17;;;;;;;23.44;82.49;98011.97;4143128;28;21219;-82
2023/08/05 09:47:49;;;;;;;4.13;3.60;;;;;;;23.70;80.33;98007.00;4160902;28;20627;-81
2023/08/05 09:49:54;;;;;;;4.13;3.43;;;;;;;23.77;80.28;98010.56;4145931;28;20641;-83
2023/08/05 09:51:59;;;;;;;3.97;3.20;;;;;;;23.75;76.65;98017.91;4146574;28;20669;-82